sensor_id;sensor_type;location;lat;lon;timestamp;P1;durP1;ratioP1;P2;durP2;ratioP2
17494;SDS011;8864;51.970;4.614;2023-02-20T00:01:15;6.15;;;1.67;;
17494;SDS011;8864;51.970;4.614;2023-02-20T00:03:42;3.72;;;1.65;;
17494;SDS011;8864;51.970;4.614;2023-02-20T00:06:10;6.55;;;1.98;;
17494;SDS011;8864;51.970;4.614;2023-02-20T00:08:37;4.47;;;1.90;;
17494;SDS011;8864;51.970;4.614;2023-02-20T00:11:09;2.95;;;1.60;;
17494;SDS011;8864;51.970;4.614;2023-02-20T00:13:36;3.45;;;1.70;;
17494;SDS011;8864;51.970;4.614;2023-02-20T00:16:05;5.43;;;1.60;;
17494;SDS011;8864;51.970;4.614;2023-02-20T00:18:35;3.15;;;1.50;;
17494;SDS011;8864;51.970;4.614;2023-02-20T00:21:02;5.63;;;1.90;;
17494;SDS011;8864;51.970;4.614;2023-02-20T00:23:31;2.47;;;1.48;;
17494;SDS011;8864;51.970;4.614;2023-02-20T00:25:58;3.38;;;1.50;;
17494;SDS011;8864;51.970;4.614;2023-02-20T00:28:29;4.47;;;1.85;;
17494;SDS011;8864;51.970;4.614;2023-02-20T00:30:56;4.78;;;1.50;;
17494;SDS011;8864;51.970;4.614;2023-02-20T00:33:24;4.47;;;1.90;;
17494;SDS011;8864;51.970;4.614;2023-02-20T00:35:50;6.32;;;1.90;;
17494;SDS011;8864;51.970;4.614;2023-02-20T00:38:18;7.80;;;2.00;;
17494;SDS011;8864;51.970;4.614;2023-02-20T00:40:48;3.38;;;1.65;;
17494;SDS011;8864;51.970;4.614;2023-02-20T00:43:17;5.93;;;1.80;;
17494;SDS011;8864;51.970;4.614;2023-02-20T00:45:47;4.93;;;1.90;;
17494;SDS011;8864;51.970;4.614;2023-02-20T00:48:17;5.07;;;1.98;;
17494;SDS011;8864;51.970;4.614;2023-02-20T00:50:49;5.22;;;1.60;;
17494;SDS011;8864;51.970;4.614;2023-02-20T00:53:17;5.60;;;2.00;;
17494;SDS011;8864;51.970;4.614;2023-02-20T00:55:44;3.38;;;1.58;;
17494;SDS011;8864;51.970;4.614;2023-02-20T00:58:17;5.68;;;1.83;;
17494;SDS011;8864;51.970;4.614;2023-02-20T01:00:47;5.82;;;1.95;;
17494;SDS011;8864;51.970;4.614;2023-02-20T01:03:17;5.70;;;2.00;;
17494;SDS011;8864;51.970;4.614;2023-02-20T01:05:45;7.03;;;1.83;;
17494;SDS011;8864;51.970;4.614;2023-02-20T01:08:12;6.20;;;2.35;;
17494;SDS011;8864;51.970;4.614;2023-02-20T01:10:43;6.82;;;1.85;;
17494;SDS011;8864;51.970;4.614;2023-02-20T01:13:11;4.45;;;2.15;;
17494;SDS011;8864;51.970;4.614;2023-02-20T01:15:38;7.07;;;2.10;;
17494;SDS011;8864;51.970;4.614;2023-02-20T01:18:06;8.77;;;2.30;;
17494;SDS011;8864;51.970;4.614;2023-02-20T01:20:34;6.57;;;2.17;;
17494;SDS011;8864;51.970;4.614;2023-02-20T01:23:02;5.18;;;2.15;;
17494;SDS011;8864;51.970;4.614;2023-02-20T01:25:29;9.65;;;2.70;;
17494;SDS011;8864;51.970;4.614;2023-02-20T01:27:56;4.63;;;2.28;;
17494;SDS011;8864;51.970;4.614;2023-02-20T01:30:23;5.55;;;2.28;;
17494;SDS011;8864;51.970;4.614;2023-02-20T01:32:50;6.13;;;2.58;;
17494;SDS011;8864;51.970;4.614;2023-02-20T01:35:19;7.28;;;2.70;;
17494;SDS011;8864;51.970;4.614;2023-02-20T01:37:46;7.60;;;2.45;;
17494;SDS011;8864;51.970;4.614;2023-02-20T01:40:15;6.80;;;2.33;;
17494;SDS011;8864;51.970;4.614;2023-02-20T01:42:43;9.38;;;2.60;;
17494;SDS011;8864;51.970;4.614;2023-02-20T01:45:14;8.68;;;2.88;;
17494;SDS011;8864;51.970;4.614;2023-02-20T01:47:46;9.27;;;3.10;;
17494;SDS011;8864;51.970;4.614;2023-02-20T01:50:13;7.85;;;2.65;;
17494;SDS011;8864;51.970;4.614;2023-02-20T01:52:43;8.82;;;3.17;;
17494;SDS011;8864;51.970;4.614;2023-02-20T01:55:17;8.85;;;3.10;;
17494;SDS011;8864;51.970;4.614;2023-02-20T01:57:49;9.88;;;3.25;;
17494;SDS011;8864;51.970;4.614;2023-02-20T02:00:21;8.20;;;2.85;;
17494;SDS011;8864;51.970;4.614;2023-02-20T02:02:50;9.07;;;3.20;;
17494;SDS011;8864;51.970;4.614;2023-02-20T02:05:22;10.05;;;3.50;;
17494;SDS011;8864;51.970;4.614;2023-02-20T02:07:52;9.98;;;3.03;;
17494;SDS011;8864;51.970;4.614;2023-02-20T02:10:20;11.18;;;4.03;;
17494;SDS011;8864;51.970;4.614;2023-02-20T02:12:53;12.02;;;3.45;;
17494;SDS011;8864;51.970;4.614;2023-02-20T02:15:21;12.20;;;3.90;;
17494;SDS011;8864;51.970;4.614;2023-02-20T02:17:57;11.27;;;3.40;;
17494;SDS011;8864;51.970;4.614;2023-02-20T02:24:02;9.38;;;3.63;;
17494;SDS011;8864;51.970;4.614;2023-02-20T02:30:12;9.25;;;3.45;;
17494;SDS011;8864;51.970;4.614;2023-02-20T02:33:08;6.07;;;3.25;;
17494;SDS011;8864;51.970;4.614;2023-02-20T02:36:01;10.05;;;3.70;;
17494;SDS011;8864;51.970;4.614;2023-02-20T02:38:46;9.85;;;3.33;;
17494;SDS011;8864;51.970;4.614;2023-02-20T02:41:23;11.65;;;4.20;;
17494;SDS011;8864;51.970;4.614;2023-02-20T02:44:00;9.60;;;3.63;;
17494;SDS011;8864;51.970;4.614;2023-02-20T02:46:37;9.35;;;3.72;;
17494;SDS011;8864;51.970;4.614;2023-02-20T02:49:13;12.48;;;4.53;;
17494;SDS011;8864;51.970;4.614;2023-02-20T02:51:48;12.60;;;4.50;;
17494;SDS011;8864;51.970;4.614;2023-02-20T02:54:19;9.90;;;3.78;;
17494;SDS011;8864;51.970;4.614;2023-02-20T02:56:51;11.02;;;3.88;;
17494;SDS011;8864;51.970;4.614;2023-02-20T02:59:20;8.35;;;3.67;;
17494;SDS011;8864;51.970;4.614;2023-02-20T03:01:52;12.07;;;4.00;;
17494;SDS011;8864;51.970;4.614;2023-02-20T03:04:25;13.57;;;4.38;;
17494;SDS011;8864;51.970;4.614;2023-02-20T03:06:56;14.43;;;3.88;;
17494;SDS011;8864;51.970;4.614;2023-02-20T03:09:26;10.25;;;3.97;;
17494;SDS011;8864;51.970;4.614;2023-02-20T03:11:56;12.02;;;4.03;;
17494;SDS011;8864;51.970;4.614;2023-02-20T03:14:27;11.15;;;3.95;;
17494;SDS011;8864;51.970;4.614;2023-02-20T03:17:16;9.05;;;3.97;;
17494;SDS011;8864;51.970;4.614;2023-02-20T03:19:52;8.48;;;3.95;;
17494;SDS011;8864;51.970;4.614;2023-02-20T03:22:24;11.13;;;3.78;;
17494;SDS011;8864;51.970;4.614;2023-02-20T03:24:55;10.85;;;4.40;;
17494;SDS011;8864;51.970;4.614;2023-02-20T03:27:27;11.02;;;3.95;;
17494;SDS011;8864;51.970;4.614;2023-02-20T03:30:03;13.85;;;4.07;;
17494;SDS011;8864;51.970;4.614;2023-02-20T03:32:45;9.02;;;4.20;;
17494;SDS011;8864;51.970;4.614;2023-02-20T03:35:33;10.68;;;4.10;;
17494;SDS011;8864;51.970;4.614;2023-02-20T03:38:25;10.63;;;4.03;;
17494;SDS011;8864;51.970;4.614;2023-02-20T03:41:13;12.63;;;3.97;;
17494;SDS011;8864;51.970;4.614;2023-02-20T03:43:59;11.07;;;4.00;;
17494;SDS011;8864;51.970;4.614;2023-02-20T03:46:30;12.38;;;4.18;;
17494;SDS011;8864;51.970;4.614;2023-02-20T03:49:01;13.73;;;4.00;;
17494;SDS011;8864;51.970;4.614;2023-02-20T03:51:30;12.85;;;3.80;;
17494;SDS011;8864;51.970;4.614;2023-02-20T03:54:17;12.10;;;4.20;;
17494;SDS011;8864;51.970;4.614;2023-02-20T03:56:45;10.45;;;3.40;;
17494;SDS011;8864;51.970;4.614;2023-02-20T03:59:17;10.20;;;3.88;;
17494;SDS011;8864;51.970;4.614;2023-02-20T04:01:49;12.05;;;4.30;;
17494;SDS011;8864;51.970;4.614;2023-02-20T04:04:19;7.05;;;3.35;;
17494;SDS011;8864;51.970;4.614;2023-02-20T04:06:50;8.75;;;3.50;;
17494;SDS011;8864;51.970;4.614;2023-02-20T04:09:22;10.55;;;3.70;;
17494;SDS011;8864;51.970;4.614;2023-02-20T04:11:54;11.55;;;3.65;;
17494;SDS011;8864;51.970;4.614;2023-02-20T04:14:26;9.82;;;3.10;;
17494;SDS011;8864;51.970;4.614;2023-02-20T04:16:59;9.50;;;3.63;;
17494;SDS011;8864;51.970;4.614;2023-02-20T04:19:29;10.60;;;3.35;;
17494;SDS011;8864;51.970;4.614;2023-02-20T04:21:57;9.65;;;3.65;;
17494;SDS011;8864;51.970;4.614;2023-02-20T04:24:30;10.05;;;3.53;;
17494;SDS011;8864;51.970;4.614;2023-02-20T04:27:02;7.90;;;2.97;;
17494;SDS011;8864;51.970;4.614;2023-02-20T04:29:30;10.45;;;3.65;;
17494;SDS011;8864;51.970;4.614;2023-02-20T04:32:00;10.60;;;3.47;;
17494;SDS011;8864;51.970;4.614;2023-02-20T04:34:26;13.57;;;3.33;;
17494;SDS011;8864;51.970;4.614;2023-02-20T04:36:56;9.15;;;2.95;;
17494;SDS011;8864;51.970;4.614;2023-02-20T04:39:32;13.48;;;3.50;;
17494;SDS011;8864;51.970;4.614;2023-02-20T04:41:59;13.07;;;3.53;;
17494;SDS011;8864;51.970;4.614;2023-02-20T04:44:26;8.63;;;2.95;;
17494;SDS011;8864;51.970;4.614;2023-02-20T04:46:58;7.05;;;2.72;;
17494;SDS011;8864;51.970;4.614;2023-02-20T04:49:26;11.65;;;3.28;;
17494;SDS011;8864;51.970;4.614;2023-02-20T04:51:53;10.13;;;2.80;;
17494;SDS011;8864;51.970;4.614;2023-02-20T04:54:20;15.95;;;3.42;;
17494;SDS011;8864;51.970;4.614;2023-02-20T04:56:50;8.93;;;2.60;;
17494;SDS011;8864;51.970;4.614;2023-02-20T04:59:17;7.93;;;2.65;;
17494;SDS011;8864;51.970;4.614;2023-02-20T05:01:46;6.20;;;2.80;;
17494;SDS011;8864;51.970;4.614;2023-02-20T05:04:18;8.88;;;2.78;;
17494;SDS011;8864;51.970;4.614;2023-02-20T05:06:50;10.15;;;2.78;;
17494;SDS011;8864;51.970;4.614;2023-02-20T05:09:18;11.02;;;3.15;;
17494;SDS011;8864;51.970;4.614;2023-02-20T05:11:46;6.28;;;2.45;;
17494;SDS011;8864;51.970;4.614;2023-02-20T05:14:15;10.98;;;2.80;;
17494;SDS011;8864;51.970;4.614;2023-02-20T05:16:45;9.80;;;3.00;;
17494;SDS011;8864;51.970;4.614;2023-02-20T05:19:12;10.45;;;3.40;;
17494;SDS011;8864;51.970;4.614;2023-02-20T05:21:40;10.25;;;2.65;;
17494;SDS011;8864;51.970;4.614;2023-02-20T05:24:25;10.93;;;2.50;;
17494;SDS011;8864;51.970;4.614;2023-02-20T05:27:16;13.82;;;2.92;;
17494;SDS011;8864;51.970;4.614;2023-02-20T05:29:50;10.38;;;2.40;;
17494;SDS011;8864;51.970;4.614;2023-02-20T05:32:23;9.55;;;2.20;;
17494;SDS011;8864;51.970;4.614;2023-02-20T05:34:51;6.03;;;2.25;;
17494;SDS011;8864;51.970;4.614;2023-02-20T05:37:19;5.45;;;1.90;;
17494;SDS011;8864;51.970;4.614;2023-02-20T05:39:47;6.97;;;2.30;;
17494;SDS011;8864;51.970;4.614;2023-02-20T05:42:16;7.32;;;2.33;;
17494;SDS011;8864;51.970;4.614;2023-02-20T05:44:48;7.10;;;2.33;;
17494;SDS011;8864;51.970;4.614;2023-02-20T05:47:19;5.82;;;2.13;;
17494;SDS011;8864;51.970;4.614;2023-02-20T05:49:46;10.60;;;2.38;;
17494;SDS011;8864;51.970;4.614;2023-02-20T05:52:13;8.68;;;2.00;;
17494;SDS011;8864;51.970;4.614;2023-02-20T05:54:41;12.13;;;2.30;;
17494;SDS011;8864;51.970;4.614;2023-02-20T05:57:11;8.65;;;2.20;;
17494;SDS011;8864;51.970;4.614;2023-02-20T05:59:38;9.15;;;2.30;;
17494;SDS011;8864;51.970;4.614;2023-02-20T06:02:06;8.52;;;2.28;;
17494;SDS011;8864;51.970;4.614;2023-02-20T06:04:36;8.30;;;2.10;;
17494;SDS011;8864;51.970;4.614;2023-02-20T06:07:06;16.45;;;2.50;;
17494;SDS011;8864;51.970;4.614;2023-02-20T06:09:34;10.60;;;2.20;;
17494;SDS011;8864;51.970;4.614;2023-02-20T06:12:01;4.53;;;2.22;;
17494;SDS011;8864;51.970;4.614;2023-02-20T06:14:28;8.05;;;2.78;;
17494;SDS011;8864;51.970;4.614;2023-02-20T06:16:55;10.75;;;2.45;;
17494;SDS011;8864;51.970;4.614;2023-02-20T06:19:26;7.97;;;2.28;;
17494;SDS011;8864;51.970;4.614;2023-02-20T06:21:54;5.57;;;2.33;;
17494;SDS011;8864;51.970;4.614;2023-02-20T06:24:23;7.35;;;2.13;;
17494;SDS011;8864;51.970;4.614;2023-02-20T06:26:51;6.63;;;2.25;;
17494;SDS011;8864;51.970;4.614;2023-02-20T06:29:21;9.45;;;2.33;;
17494;SDS011;8864;51.970;4.614;2023-02-20T06:31:48;7.22;;;2.05;;
17494;SDS011;8864;51.970;4.614;2023-02-20T06:34:15;6.25;;;1.83;;
17494;SDS011;8864;51.970;4.614;2023-02-20T06:36:46;9.75;;;2.47;;
17494;SDS011;8864;51.970;4.614;2023-02-20T06:39:16;8.02;;;2.30;;
17494;SDS011;8864;51.970;4.614;2023-02-20T06:41:43;9.52;;;2.10;;
17494;SDS011;8864;51.970;4.614;2023-02-20T06:44:14;7.70;;;2.00;;
17494;SDS011;8864;51.970;4.614;2023-02-20T06:46:42;7.07;;;2.10;;
17494;SDS011;8864;51.970;4.614;2023-02-20T06:49:09;6.38;;;1.95;;
17494;SDS011;8864;51.970;4.614;2023-02-20T06:51:36;8.55;;;2.25;;
17494;SDS011;8864;51.970;4.614;2023-02-20T06:54:12;9.57;;;1.83;;
17494;SDS011;8864;51.970;4.614;2023-02-20T06:56:39;13.20;;;2.05;;
17494;SDS011;8864;51.970;4.614;2023-02-20T06:59:07;8.98;;;2.25;;
17494;SDS011;8864;51.970;4.614;2023-02-20T07:01:37;11.65;;;2.60;;
17494;SDS011;8864;51.970;4.614;2023-02-20T07:04:06;7.97;;;1.95;;
17494;SDS011;8864;51.970;4.614;2023-02-20T07:06:47;7.80;;;1.92;;
17494;SDS011;8864;51.970;4.614;2023-02-20T07:09:15;8.07;;;1.85;;
17494;SDS011;8864;51.970;4.614;2023-02-20T07:11:44;6.50;;;2.05;;
17494;SDS011;8864;51.970;4.614;2023-02-20T07:14:14;10.50;;;2.17;;
17494;SDS011;8864;51.970;4.614;2023-02-20T07:16:47;8.20;;;1.90;;
17494;SDS011;8864;51.970;4.614;2023-02-20T07:19:15;8.52;;;1.88;;
17494;SDS011;8864;51.970;4.614;2023-02-20T07:21:45;8.15;;;1.92;;
17494;SDS011;8864;51.970;4.614;2023-02-20T07:24:13;6.15;;;1.88;;
17494;SDS011;8864;51.970;4.614;2023-02-20T07:26:42;5.55;;;1.58;;
17494;SDS011;8864;51.970;4.614;2023-02-20T07:29:12;9.43;;;2.15;;
17494;SDS011;8864;51.970;4.614;2023-02-20T07:31:40;7.65;;;2.00;;
17494;SDS011;8864;51.970;4.614;2023-02-20T07:34:07;7.53;;;2.00;;
17494;SDS011;8864;51.970;4.614;2023-02-20T07:36:34;8.40;;;2.40;;
17494;SDS011;8864;51.970;4.614;2023-02-20T07:39:09;7.20;;;1.85;;
17494;SDS011;8864;51.970;4.614;2023-02-20T07:41:43;9.35;;;1.90;;
17494;SDS011;8864;51.970;4.614;2023-02-20T07:44:11;8.35;;;1.85;;
17494;SDS011;8864;51.970;4.614;2023-02-20T07:46:41;8.82;;;2.17;;
17494;SDS011;8864;51.970;4.614;2023-02-20T07:49:08;20.17;;;3.40;;
17494;SDS011;8864;51.970;4.614;2023-02-20T07:51:35;17.45;;;3.63;;
17494;SDS011;8864;51.970;4.614;2023-02-20T07:54:06;23.40;;;3.83;;
17494;SDS011;8864;51.970;4.614;2023-02-20T07:56:33;12.55;;;3.08;;
17494;SDS011;8864;51.970;4.614;2023-02-20T07:59:05;15.65;;;3.63;;
17494;SDS011;8864;51.970;4.614;2023-02-20T08:01:35;15.60;;;3.28;;
17494;SDS011;8864;51.970;4.614;2023-02-20T08:04:06;18.75;;;3.20;;
17494;SDS011;8864;51.970;4.614;2023-02-20T08:06:35;20.30;;;3.75;;
17494;SDS011;8864;51.970;4.614;2023-02-20T08:09:02;18.48;;;3.58;;
17494;SDS011;8864;51.970;4.614;2023-02-20T08:11:36;98.63;;;13.57;;
17494;SDS011;8864;51.970;4.614;2023-02-20T08:14:05;41.67;;;7.40;;
17494;SDS011;8864;51.970;4.614;2023-02-20T08:19:33;54.50;;;9.52;;
17494;SDS011;8864;51.970;4.614;2023-02-20T08:22:00;61.50;;;9.20;;
17494;SDS011;8864;51.970;4.614;2023-02-20T08:24:29;47.95;;;7.78;;
17494;SDS011;8864;51.970;4.614;2023-02-20T08:27:00;49.90;;;8.57;;
17494;SDS011;8864;51.970;4.614;2023-02-20T08:29:28;58.05;;;8.68;;
17494;SDS011;8864;51.970;4.614;2023-02-20T08:31:56;44.50;;;7.90;;
17494;SDS011;8864;51.970;4.614;2023-02-20T08:34:23;32.75;;;6.47;;
17494;SDS011;8864;51.970;4.614;2023-02-20T08:36:53;29.60;;;7.03;;
17494;SDS011;8864;51.970;4.614;2023-02-20T08:39:23;34.05;;;6.18;;
17494;SDS011;8864;51.970;4.614;2023-02-20T08:41:51;40.03;;;7.47;;
17494;SDS011;8864;51.970;4.614;2023-02-20T08:44:21;26.42;;;5.80;;
17494;SDS011;8864;51.970;4.614;2023-02-20T08:46:50;29.27;;;5.88;;
17494;SDS011;8864;51.970;4.614;2023-02-20T08:49:17;25.50;;;5.95;;
17494;SDS011;8864;51.970;4.614;2023-02-20T08:51:47;25.00;;;5.45;;
17494;SDS011;8864;51.970;4.614;2023-02-20T08:54:18;27.08;;;5.20;;
17494;SDS011;8864;51.970;4.614;2023-02-20T08:56:45;26.77;;;5.53;;
17494;SDS011;8864;51.970;4.614;2023-02-20T08:59:12;28.05;;;5.30;;
17494;SDS011;8864;51.970;4.614;2023-02-20T09:01:39;23.88;;;4.70;;
17494;SDS011;8864;51.970;4.614;2023-02-20T09:04:08;24.10;;;4.90;;
17494;SDS011;8864;51.970;4.614;2023-02-20T09:06:37;20.10;;;4.50;;
17494;SDS011;8864;51.970;4.614;2023-02-20T09:09:04;19.30;;;4.78;;
17494;SDS011;8864;51.970;4.614;2023-02-20T09:11:31;19.80;;;4.15;;
17494;SDS011;8864;51.970;4.614;2023-02-20T09:14:01;18.90;;;3.97;;
17494;SDS011;8864;51.970;4.614;2023-02-20T09:16:28;15.18;;;4.28;;
17494;SDS011;8864;51.970;4.614;2023-02-20T09:19:01;17.05;;;4.10;;
17494;SDS011;8864;51.970;4.614;2023-02-20T09:21:29;12.40;;;3.90;;
17494;SDS011;8864;51.970;4.614;2023-02-20T09:23:56;12.07;;;3.88;;
17494;SDS011;8864;51.970;4.614;2023-02-20T09:26:23;14.98;;;3.60;;
17494;SDS011;8864;51.970;4.614;2023-02-20T09:28:50;14.02;;;3.50;;
17494;SDS011;8864;51.970;4.614;2023-02-20T09:31:17;11.52;;;3.55;;
17494;SDS011;8864;51.970;4.614;2023-02-20T09:33:47;14.35;;;3.45;;
17494;SDS011;8864;51.970;4.614;2023-02-20T09:36:14;11.05;;;3.40;;
17494;SDS011;8864;51.970;4.614;2023-02-20T09:38:47;14.45;;;3.60;;
17494;SDS011;8864;51.970;4.614;2023-02-20T09:41:22;10.73;;;3.08;;
17494;SDS011;8864;51.970;4.614;2023-02-20T09:44:01;8.73;;;3.13;;
17494;SDS011;8864;51.970;4.614;2023-02-20T09:46:37;7.30;;;2.42;;
17494;SDS011;8864;51.970;4.614;2023-02-20T09:49:11;13.38;;;3.80;;
17494;SDS011;8864;51.970;4.614;2023-02-20T09:51:41;10.23;;;2.92;;
17494;SDS011;8864;51.970;4.614;2023-02-20T09:54:16;11.40;;;3.30;;
17494;SDS011;8864;51.970;4.614;2023-02-20T09:56:50;9.70;;;2.53;;
17494;SDS011;8864;51.970;4.614;2023-02-20T09:59:22;9.52;;;2.80;;
17494;SDS011;8864;51.970;4.614;2023-02-20T10:01:54;9.75;;;2.90;;
17494;SDS011;8864;51.970;4.614;2023-02-20T10:04:26;8.52;;;2.92;;
17494;SDS011;8864;51.970;4.614;2023-02-20T10:06:59;10.48;;;2.83;;
17494;SDS011;8864;51.970;4.614;2023-02-20T10:09:35;6.15;;;2.70;;
17494;SDS011;8864;51.970;4.614;2023-02-20T10:12:05;9.35;;;3.10;;
17494;SDS011;8864;51.970;4.614;2023-02-20T10:14:52;8.43;;;2.58;;
17494;SDS011;8864;51.970;4.614;2023-02-20T10:17:33;11.82;;;2.70;;
17494;SDS011;8864;51.970;4.614;2023-02-20T10:20:09;11.30;;;2.55;;
17494;SDS011;8864;51.970;4.614;2023-02-20T10:22:46;8.65;;;2.83;;
17494;SDS011;8864;51.970;4.614;2023-02-20T10:25:23;10.10;;;2.58;;
17494;SDS011;8864;51.970;4.614;2023-02-20T10:27:55;9.40;;;2.60;;
17494;SDS011;8864;51.970;4.614;2023-02-20T10:30:31;5.47;;;2.60;;
17494;SDS011;8864;51.970;4.614;2023-02-20T10:33:12;5.72;;;1.73;;
17494;SDS011;8864;51.970;4.614;2023-02-20T10:35:48;6.53;;;2.17;;
17494;SDS011;8864;51.970;4.614;2023-02-20T10:38:24;5.82;;;2.20;;
17494;SDS011;8864;51.970;4.614;2023-02-20T10:40:58;6.03;;;2.22;;
17494;SDS011;8864;51.970;4.614;2023-02-20T10:43:32;6.03;;;2.20;;
17494;SDS011;8864;51.970;4.614;2023-02-20T10:46:03;8.30;;;2.08;;
17494;SDS011;8864;51.970;4.614;2023-02-20T10:48:36;5.38;;;1.83;;
17494;SDS011;8864;51.970;4.614;2023-02-20T10:51:07;8.48;;;2.10;;
17494;SDS011;8864;51.970;4.614;2023-02-20T10:53:39;5.55;;;2.00;;
17494;SDS011;8864;51.970;4.614;2023-02-20T10:56:17;3.97;;;1.95;;
17494;SDS011;8864;51.970;4.614;2023-02-20T10:59:03;5.53;;;2.00;;
17494;SDS011;8864;51.970;4.614;2023-02-20T11:01:36;4.53;;;1.92;;
17494;SDS011;8864;51.970;4.614;2023-02-20T11:04:05;5.53;;;2.10;;
17494;SDS011;8864;51.970;4.614;2023-02-20T11:06:41;5.47;;;1.83;;
17494;SDS011;8864;51.970;4.614;2023-02-20T11:09:21;5.25;;;2.00;;
17494;SDS011;8864;51.970;4.614;2023-02-20T11:11:51;4.47;;;1.92;;
17494;SDS011;8864;51.970;4.614;2023-02-20T11:14:21;7.50;;;2.17;;
17494;SDS011;8864;51.970;4.614;2023-02-20T11:16:54;7.20;;;2.08;;
17494;SDS011;8864;51.970;4.614;2023-02-20T11:19:31;3.88;;;1.50;;
17494;SDS011;8864;51.970;4.614;2023-02-20T11:22:02;5.38;;;2.00;;
17494;SDS011;8864;51.970;4.614;2023-02-20T11:24:30;3.63;;;1.70;;
17494;SDS011;8864;51.970;4.614;2023-02-20T11:27:06;4.13;;;1.70;;
17494;SDS011;8864;51.970;4.614;2023-02-20T11:29:41;4.15;;;1.45;;
17494;SDS011;8864;51.970;4.614;2023-02-20T11:32:21;6.13;;;1.73;;
17494;SDS011;8864;51.970;4.614;2023-02-20T11:41:00;3.42;;;1.60;;
17494;SDS011;8864;51.970;4.614;2023-02-20T11:43:35;2.15;;;1.30;;
17494;SDS011;8864;51.970;4.614;2023-02-20T11:46:13;3.72;;;1.60;;
17494;SDS011;8864;51.970;4.614;2023-02-20T11:48:58;6.47;;;1.67;;
17494;SDS011;8864;51.970;4.614;2023-02-20T11:51:30;4.45;;;1.67;;
17494;SDS011;8864;51.970;4.614;2023-02-20T11:54:12;7.82;;;1.60;;
17494;SDS011;8864;51.970;4.614;2023-02-20T11:56:53;4.40;;;1.40;;
17494;SDS011;8864;51.970;4.614;2023-02-20T11:59:29;3.35;;;1.42;;
17494;SDS011;8864;51.970;4.614;2023-02-20T12:02:15;2.58;;;1.25;;
17494;SDS011;8864;51.970;4.614;2023-02-20T12:05:09;2.55;;;1.42;;
17494;SDS011;8864;51.970;4.614;2023-02-20T12:07:40;3.00;;;1.40;;
17494;SDS011;8864;51.970;4.614;2023-02-20T12:13:04;7.05;;;1.70;;
17494;SDS011;8864;51.970;4.614;2023-02-20T12:15:36;3.42;;;1.77;;
17494;SDS011;8864;51.970;4.614;2023-02-20T12:18:23;4.45;;;1.52;;
17494;SDS011;8864;51.970;4.614;2023-02-20T12:21:17;3.70;;;1.60;;
17494;SDS011;8864;51.970;4.614;2023-02-20T12:23:54;3.72;;;1.77;;
17494;SDS011;8864;51.970;4.614;2023-02-20T12:26:50;8.80;;;1.60;;
17494;SDS011;8864;51.970;4.614;2023-02-20T12:29:26;5.70;;;1.55;;
17494;SDS011;8864;51.970;4.614;2023-02-20T12:32:16;4.70;;;1.40;;
17494;SDS011;8864;51.970;4.614;2023-02-20T12:34:55;6.00;;;1.60;;
17494;SDS011;8864;51.970;4.614;2023-02-20T12:37:32;7.05;;;1.85;;
17494;SDS011;8864;51.970;4.614;2023-02-20T12:40:27;5.10;;;1.38;;
17494;SDS011;8864;51.970;4.614;2023-02-20T12:43:06;5.88;;;1.55;;
17494;SDS011;8864;51.970;4.614;2023-02-20T12:45:42;6.78;;;1.58;;
17494;SDS011;8864;51.970;4.614;2023-02-20T12:48:26;2.22;;;1.40;;
17494;SDS011;8864;51.970;4.614;2023-02-20T12:51:05;2.88;;;1.75;;
17494;SDS011;8864;51.970;4.614;2023-02-20T12:53:42;8.18;;;1.50;;
17494;SDS011;8864;51.970;4.614;2023-02-20T12:56:23;2.88;;;1.50;;
17494;SDS011;8864;51.970;4.614;2023-02-20T12:59:04;5.43;;;1.50;;
17494;SDS011;8864;51.970;4.614;2023-02-20T13:01:41;5.43;;;1.42;;
17494;SDS011;8864;51.970;4.614;2023-02-20T13:04:16;7.13;;;1.40;;
17494;SDS011;8864;51.970;4.614;2023-02-20T13:06:54;4.68;;;1.45;;
17494;SDS011;8864;51.970;4.614;2023-02-20T13:09:30;5.53;;;1.67;;
17494;SDS011;8864;51.970;4.614;2023-02-20T13:12:00;2.83;;;1.25;;
17494;SDS011;8864;51.970;4.614;2023-02-20T13:14:38;2.05;;;1.67;;
17494;SDS011;8864;51.970;4.614;2023-02-20T13:17:20;3.25;;;1.50;;
17494;SDS011;8864;51.970;4.614;2023-02-20T13:20:09;4.13;;;1.60;;
17494;SDS011;8864;51.970;4.614;2023-02-20T13:25:39;4.28;;;1.70;;
17494;SDS011;8864;51.970;4.614;2023-02-20T13:28:21;4.60;;;1.55;;
17494;SDS011;8864;51.970;4.614;2023-02-20T13:31:14;3.20;;;1.40;;
17494;SDS011;8864;51.970;4.614;2023-02-20T13:33:46;3.53;;;1.45;;
17494;SDS011;8864;51.970;4.614;2023-02-20T13:54:02;4.32;;;1.73;;
17494;SDS011;8864;51.970;4.614;2023-02-20T13:57:00;5.25;;;1.50;;
17494;SDS011;8864;51.970;4.614;2023-02-20T13:59:45;3.15;;;1.42;;
17494;SDS011;8864;51.970;4.614;2023-02-20T14:02:24;7.10;;;1.70;;
17494;SDS011;8864;51.970;4.614;2023-02-20T14:04:58;2.42;;;1.20;;
17494;SDS011;8864;51.970;4.614;2023-02-20T14:07:28;3.63;;;1.75;;
17494;SDS011;8864;51.970;4.614;2023-02-20T14:10:04;3.00;;;1.40;;
17494;SDS011;8864;51.970;4.614;2023-02-20T14:12:33;5.22;;;1.30;;
17494;SDS011;8864;51.970;4.614;2023-02-20T14:15:02;2.80;;;1.63;;
17494;SDS011;8864;51.970;4.614;2023-02-20T14:17:35;6.72;;;1.30;;
17494;SDS011;8864;51.970;4.614;2023-02-20T14:20:04;3.75;;;1.17;;
17494;SDS011;8864;51.970;4.614;2023-02-20T14:22:37;3.47;;;1.30;;
17494;SDS011;8864;51.970;4.614;2023-02-20T14:28:10;3.08;;;1.50;;
17494;SDS011;8864;51.970;4.614;2023-02-20T14:30:41;3.70;;;1.50;;
17494;SDS011;8864;51.970;4.614;2023-02-20T14:33:14;3.97;;;1.50;;
17494;SDS011;8864;51.970;4.614;2023-02-20T14:35:54;5.20;;;1.52;;
17494;SDS011;8864;51.970;4.614;2023-02-20T14:38:39;2.53;;;1.23;;
17494;SDS011;8864;51.970;4.614;2023-02-20T14:41:17;3.45;;;1.33;;
17494;SDS011;8864;51.970;4.614;2023-02-20T14:43:52;4.72;;;1.30;;
17494;SDS011;8864;51.970;4.614;2023-02-20T14:46:27;2.45;;;1.33;;
17494;SDS011;8864;51.970;4.614;2023-02-20T14:49:03;3.53;;;1.45;;
17494;SDS011;8864;51.970;4.614;2023-02-20T14:51:37;4.40;;;1.40;;
17494;SDS011;8864;51.970;4.614;2023-02-20T14:54:15;4.35;;;1.30;;
17494;SDS011;8864;51.970;4.614;2023-02-20T14:56:45;2.80;;;1.30;;
17494;SDS011;8864;51.970;4.614;2023-02-20T14:59:20;3.72;;;1.27;;
17494;SDS011;8864;51.970;4.614;2023-02-20T15:01:52;2.45;;;1.33;;
17494;SDS011;8864;51.970;4.614;2023-02-20T15:04:25;5.22;;;1.42;;
17494;SDS011;8864;51.970;4.614;2023-02-20T15:06:54;2.90;;;1.20;;
17494;SDS011;8864;51.970;4.614;2023-02-20T15:09:36;3.85;;;1.23;;
17494;SDS011;8864;51.970;4.614;2023-02-20T15:12:19;4.20;;;1.30;;
17494;SDS011;8864;51.970;4.614;2023-02-20T15:14:55;2.78;;;1.33;;
17494;SDS011;8864;51.970;4.614;2023-02-20T15:17:27;2.63;;;1.20;;
17494;SDS011;8864;51.970;4.614;2023-02-20T15:19:58;3.88;;;1.30;;
17494;SDS011;8864;51.970;4.614;2023-02-20T15:22:44;4.40;;;1.38;;
17494;SDS011;8864;51.970;4.614;2023-02-20T15:25:25;3.45;;;1.30;;
17494;SDS011;8864;51.970;4.614;2023-02-20T15:28:05;2.15;;;1.27;;
17494;SDS011;8864;51.970;4.614;2023-02-20T15:31:02;3.05;;;1.17;;
17494;SDS011;8864;51.970;4.614;2023-02-20T15:33:43;3.97;;;1.30;;
17494;SDS011;8864;51.970;4.614;2023-02-20T15:36:18;3.20;;;1.40;;
17494;SDS011;8864;51.970;4.614;2023-02-20T15:38:51;4.03;;;1.42;;
17494;SDS011;8864;51.970;4.614;2023-02-20T15:41:19;2.97;;;1.20;;
17494;SDS011;8864;51.970;4.614;2023-02-20T15:43:48;3.42;;;1.23;;
17494;SDS011;8864;51.970;4.614;2023-02-20T15:46:16;2.40;;;1.25;;
17494;SDS011;8864;51.970;4.614;2023-02-20T15:48:47;2.55;;;1.17;;
17494;SDS011;8864;51.970;4.614;2023-02-20T15:51:17;3.40;;;1.35;;
17494;SDS011;8864;51.970;4.614;2023-02-20T15:53:51;1.83;;;1.20;;
17494;SDS011;8864;51.970;4.614;2023-02-20T15:56:22;2.45;;;1.30;;
17494;SDS011;8864;51.970;4.614;2023-02-20T15:58:51;2.83;;;1.20;;
17494;SDS011;8864;51.970;4.614;2023-02-20T16:01:18;2.38;;;1.30;;
17494;SDS011;8864;51.970;4.614;2023-02-20T16:03:46;2.50;;;1.20;;
17494;SDS011;8864;51.970;4.614;2023-02-20T16:06:13;2.40;;;1.20;;
17494;SDS011;8864;51.970;4.614;2023-02-20T16:08:45;5.80;;;1.40;;
17494;SDS011;8864;51.970;4.614;2023-02-20T16:11:14;2.53;;;1.63;;
17494;SDS011;8864;51.970;4.614;2023-02-20T16:13:44;2.05;;;1.33;;